Flight Track Log - Related Links

Times and Time Zones

All times are in EDT time to prevent confusion due to time zone crossing. See the VH-KEZ flight status page for this flight to view local times or setup timezone preferences in your user account.

Time Position Orientation Groundspeed Altitude Reporting Facility
EDT Latitude Longitude Course Direction KTS MPH feet Rate Location/Type
Tue 04:16:36 AM -18.4666 124.6700 360° North 100  Level Aus ATC (Calculated)
Tue 04:16:40 AM -18.4666 124.6700 282° West 300  Climbing Aus ATC (Calculated)
Tue 04:17:36 AM -18.4509 124.5935 282° West 100 -214 Descending Aus ATC (Calculated)
Tue 04:19:00 AM -18.4363 124.5234 282° West  Level FlightAware Approximate
Tue 04:20:00 AM -18.4259 124.4733 282° West  Level FlightAware Approximate
Tue 04:20:36 AM -18.4202 124.4457 282° West 300  Level Aus ATC (Calculated)
Tue 04:21:00 AM -18.4155 124.4232 282° West  Level FlightAware Approximate
Tue 04:21:44 AM -18.4059 124.3762 360° North 100  Level Aus ATC (Calculated)
Tue 04:22:22 AM -18.4059 124.3762 282° West 300 316 Climbing Aus ATC (Calculated)
Tue 04:23:00 AM -18.3927 124.3128 282° West  Level FlightAware Approximate
Tue 04:24:00 AM -18.3888 124.2944 282° West  Level FlightAware Approximate
Tue 04:25:00 AM -18.3783 124.2443 282° West  Level FlightAware Approximate
Tue 04:25:48 AM -18.3641 124.1743 101° East 300  Level Aus ATC (Calculated)
Tue 04:26:00 AM -18.3679 124.1943 282° West  Level FlightAware Approximate
Tue 04:27:00 AM -18.3515 124.1142 282° West  Level FlightAware Approximate
Tue 04:28:00 AM -18.3410 124.0642 282° West  Level FlightAware Approximate
Tue 04:28:45 AM -18.3388 124.0524 136° Southeast 100  Level Aus ATC (Calculated)
Tue 04:28:48 AM -18.3388 124.0524 283° West 300 4,000 Climbing Aus ATC (Calculated)
Tue 04:30:00 AM -18.3261 123.9924 283° West  Level FlightAware Approximate
Tue 04:31:00 AM -18.3156 123.9423 283° West  Level FlightAware Approximate
Tue 04:31:13 AM -18.3150 123.9381 283° West 100  Level Aus ATC (Calculated)
Tue 04:33:00 AM -18.2961 123.8489 283° West  Level FlightAware Approximate
Tue 04:33:26 AM -18.2924 123.8315 360° North 100  Level Aus ATC (Calculated)
Tue 04:33:34 AM -18.2924 123.8315 360° North 300  Climbing Aus ATC (Calculated)
Tue 04:34:32 AM -18.2924 123.8315 283° West 100 -207 Descending Aus ATC (Calculated)
Tue 04:35:00 AM -18.2772 123.7598 283° West  Level FlightAware Approximate
Tue 04:35:13 AM -18.2924 123.8315 283° West 300  Level Aus ATC (Calculated)
Tue 04:37:00 AM -18.2735 123.7423 283° West  Level FlightAware Approximate
Tue 04:38:00 AM -18.2628 123.6923 283° West  Level FlightAware Approximate
Tue 04:39:00 AM -18.2521 123.6423 283° West  Level FlightAware Approximate
Tue 04:40:00 AM -18.2415 123.5923 283° West  Level FlightAware Approximate
Tue 04:41:00 AM -18.2308 123.5424 283° West  Level FlightAware Approximate
Tue 04:42:00 AM -18.2201 123.4924 283° West  Level FlightAware Approximate
Tue 04:43:00 AM -18.2094 123.4424 283° West  Level FlightAware Approximate
Tue 04:43:28 AM -18.2079 123.4300 283° West 100  Level Aus ATC (Calculated)
Tue 04:45:00 AM -18.1914 123.3534 283° West  Level FlightAware Approximate
Tue 04:46:00 AM -18.1806 123.3035 283° West  Level FlightAware Approximate
Tue 04:47:00 AM -18.1698 123.2535 283° West  Level FlightAware Approximate
Tue 04:48:00 AM -18.1590 123.2036 283° West  Level FlightAware Approximate
Tue 04:49:00 AM -18.1482 123.1537 283° West  Level FlightAware Approximate
Tue 04:50:00 AM -18.1373 123.1038 283° West  Level FlightAware Approximate
Tue 04:50:56 AM -18.1269 123.0563 281° West 100  Level Aus ATC (Calculated)
Tue 04:51:00 AM -18.1264 123.0539 283° West  Level FlightAware Approximate
Tue 04:52:00 AM -18.1153 123.0031 283° West  Level FlightAware Approximate
Tue 04:53:00 AM -18.1044 122.9532 283° West  Level FlightAware Approximate
Tue 04:53:27 AM -18.0933 122.9022 103° East 300  Level Aus ATC (Calculated)
Tue 04:54:00 AM -18.0935 122.9033 283° West  Level FlightAware Approximate
Tue 04:55:00 AM -18.0764 122.8249 283° West  Level FlightAware Approximate
Tue 04:55:12 AM -18.0755 122.8178 283° West 100  Level Aus ATC (Calculated)
Tue 04:57:00 AM -18.0557 122.7281 283° West  Level FlightAware Approximate
Tue 04:57:10 AM -18.0594 122.7449 283° West 300  Level Aus ATC (Calculated)
Tue 04:59:00 AM -18.0393 122.6535 283° West  Level FlightAware Approximate
Tue 05:00:00 AM -18.0282 122.6037 283° West  Level FlightAware Approximate
Tue 05:01:00 AM -18.0172 122.5539 283° West  Level FlightAware Approximate
Tue 05:02:00 AM -18.0061 122.5041 283° West  Level FlightAware Approximate
Tue 05:03:00 AM -17.9951 122.4542 283° West  Level FlightAware Approximate
Tue 05:04:00 AM -17.9840 122.4044 283° West  Level FlightAware Approximate
Tue 05:05:00 AM -17.9729 122.3546 283° West  Level FlightAware Approximate
Tue 05:05:37 AM -17.9496 122.2277 360° North 100  Level Aus ATC (Calculated)
Tue 05:05:37 AM -17.9496 122.2277 99° East 100  Level Aus ATC (Calculated)
Tue 05:06:00 AM -17.9618 122.3048 283° West  Level FlightAware Approximate
Tue 05:07:00 AM -17.9447 122.2317 65° Northeast  Level Estimated
Tue 05:08:00 AM -17.9447 122.2317 115° Southeast  Level Estimated
Tue 05:09:00 AM -17.9447 122.2317 115° Southeast  Level Estimated
Tue 05:10:00 AM -17.9447 122.2317 115° Southeast  Level Estimated
Tue 05:11:00 AM -17.9447 122.2317 115° Southeast  Level Estimated
Tue 05:12:00 AM -17.9463 122.2353 282° West  Level FlightAware Approximate
Tue 05:13:00 AM -17.9463 122.2353 282° West  Level FlightAware Approximate
Tue 05:14:00 AM -17.9447 122.2317 282° West  Level Estimated
Tue 05:15:00 AM -17.9463 122.2353 282° West  Level FlightAware Approximate
Tue 05:16:00 AM -17.9447 122.2317 282° West  Level Estimated
Tue 05:17:00 AM -17.9463 122.2353 282° West  Level FlightAware Approximate
Tue 05:18:00 AM -17.9447 122.2317 282° West  Level Estimated
Tue 05:19:00 AM -17.9463 122.2353 282° West  Level FlightAware Approximate
Tue 05:20:00 AM -17.9447 122.2317 282° West  Level Estimated
Tue 05:21:00 AM -17.9463 122.2353 282° West  Level FlightAware Approximate
Tue 05:22:00 AM -17.9447 122.2317 282° West  Level Estimated

Login

Don't have an account? Register now (free) for customized features, flight alerts, and more!